sensor_id;sensor_type;location;lat;lon;timestamp;pressure;altitude;pressure_sealevel;temperature;humidity
8160;BME280;27404;52.398;9.646;2023-05-25T00:00:20;101839.44;;;6.13;100.00
8160;BME280;27404;52.398;9.646;2023-05-25T00:02:45;101825.84;;;6.13;100.00
8160;BME280;27404;52.398;9.646;2023-05-25T00:05:11;101837.06;;;6.10;100.00
8160;BME280;27404;52.398;9.646;2023-05-25T00:07:38;101837.38;;;6.15;100.00
8160;BME280;27404;52.398;9.646;2023-05-25T00:10:04;101833.66;;;6.16;100.00
8160;BME280;27404;52.398;9.646;2023-05-25T00:12:31;101831.59;;;6.18;100.00
8160;BME280;27404;52.398;9.646;2023-05-25T00:14:56;101824.13;;;6.20;100.00
8160;BME280;27404;52.398;9.646;2023-05-25T00:17:22;101834.31;;;6.18;100.00
8160;BME280;27404;52.398;9.646;2023-05-25T00:19:48;101824.63;;;6.16;100.00
8160;BME280;27404;52.398;9.646;2023-05-25T00:22:14;101833.84;;;6.06;100.00
8160;BME280;27404;52.398;9.646;2023-05-25T00:24:39;101833.84;;;5.98;100.00
8160;BME280;27404;52.398;9.646;2023-05-25T00:27:05;101823.84;;;5.99;100.00
8160;BME280;27404;52.398;9.646;2023-05-25T00:29:32;101826.22;;;6.02;100.00
8160;BME280;27404;52.398;9.646;2023-05-25T00:31:57;101833.34;;;6.03;100.00
8160;BME280;27404;52.398;9.646;2023-05-25T00:34:23;101826.41;;;6.00;100.00
8160;BME280;27404;52.398;9.646;2023-05-25T00:36:48;101836.56;;;6.06;100.00
8160;BME280;27404;52.398;9.646;2023-05-25T00:39:14;101831.31;;;6.05;100.00
8160;BME280;27404;52.398;9.646;2023-05-25T00:41:42;101833.34;;;6.03;100.00
8160;BME280;27404;52.398;9.646;2023-05-25T00:44:09;101829.97;;;6.01;100.00
8160;BME280;27404;52.398;9.646;2023-05-25T00:46:44;101830.47;;;5.96;100.00
8160;BME280;27404;52.398;9.646;2023-05-25T00:49:12;101829.97;;;5.92;100.00
8160;BME280;27404;52.398;9.646;2023-05-25T00:51:39;101828.63;;;5.88;100.00
8160;BME280;27404;52.398;9.646;2023-05-25T00:54:06;101828.13;;;5.85;100.00
8160;BME280;27404;52.398;9.646;2023-05-25T00:56:34;101836.44;;;5.83;100.00
8160;BME280;27404;52.398;9.646;2023-05-25T00:59:05;101828.31;;;5.75;100.00
8160;BME280;27404;52.398;9.646;2023-05-25T01:01:34;101832.25;;;5.72;100.00
8160;BME280;27404;52.398;9.646;2023-05-25T01:04:06;101837.16;;;5.69;100.00
8160;BME280;27404;52.398;9.646;2023-05-25T01:06:35;101832.06;;;5.66;100.00
8160;BME280;27404;52.398;9.646;2023-05-25T01:09:06;101832.13;;;5.57;100.00
8160;BME280;27404;52.398;9.646;2023-05-25T01:11:39;101831.09;;;5.58;100.00
8160;BME280;27404;52.398;9.646;2023-05-25T01:14:07;101835.66;;;5.49;100.00
8160;BME280;27404;52.398;9.646;2023-05-25T01:16:32;101829.75;;;5.46;100.00
8160;BME280;27404;52.398;9.646;2023-05-25T01:18:58;101835.00;;;5.39;100.00
8160;BME280;27404;52.398;9.646;2023-05-25T01:21:43;101835.19;;;5.38;100.00
8160;BME280;27404;52.398;9.646;2023-05-25T01:27:08;101830.78;;;5.37;100.00
8160;BME280;27404;52.398;9.646;2023-05-25T01:29:38;101836.22;;;5.37;100.00
8160;BME280;27404;52.398;9.646;2023-05-25T01:32:05;101826.72;;;5.32;100.00
8160;BME280;27404;52.398;9.646;2023-05-25T01:34:31;101828.56;;;5.32;100.00
8160;BME280;27404;52.398;9.646;2023-05-25T01:36:56;101830.13;;;5.26;100.00
8160;BME280;27404;52.398;9.646;2023-05-25T01:39:22;101822.66;;;5.20;100.00
8160;BME280;27404;52.398;9.646;2023-05-25T01:41:48;101820.97;;;5.19;100.00
8160;BME280;27404;52.398;9.646;2023-05-25T01:44:14;101817.91;;;5.14;100.00
8160;BME280;27404;52.398;9.646;2023-05-25T01:46:40;101819.28;;;5.10;100.00
8160;BME280;27404;52.398;9.646;2023-05-25T01:49:16;101822.84;;;5.10;100.00
8160;BME280;27404;52.398;9.646;2023-05-25T01:51:55;101822.84;;;5.10;100.00
8160;BME280;27404;52.398;9.646;2023-05-25T01:54:29;101826.06;;;5.14;100.00
8160;BME280;27404;52.398;9.646;2023-05-25T01:56:58;101830.97;;;5.18;100.00
8160;BME280;27404;52.398;9.646;2023-05-25T01:59:27;101836.06;;;5.22;100.00
8160;BME280;27404;52.398;9.646;2023-05-25T02:01:53;101836.22;;;5.28;100.00
8160;BME280;27404;52.398;9.646;2023-05-25T02:04:19;101835.34;;;5.36;100.00
8160;BME280;27404;52.398;9.646;2023-05-25T02:06:52;101835.69;;;5.41;100.00
8160;BME280;27404;52.398;9.646;2023-05-25T02:09:17;101829.09;;;5.36;100.00
8160;BME280;27404;52.398;9.646;2023-05-25T02:11:43;101835.19;;;5.29;100.00
8160;BME280;27404;52.398;9.646;2023-05-25T02:14:08;101826.22;;;5.29;100.00
8160;BME280;27404;52.398;9.646;2023-05-25T02:16:35;101830.59;;;5.38;100.00
8160;BME280;27404;52.398;9.646;2023-05-25T02:19:00;101835.66;;;5.49;100.00
8160;BME280;27404;52.398;9.646;2023-05-25T02:21:26;101829.06;;;5.60;100.00
8160;BME280;27404;52.398;9.646;2023-05-25T02:23:52;101827.84;;;5.71;100.00
8160;BME280;27404;52.398;9.646;2023-05-25T02:26:18;101837.13;;;5.77;100.00
8160;BME280;27404;52.398;9.646;2023-05-25T02:28:44;101838.81;;;5.86;100.00
8160;BME280;27404;52.398;9.646;2023-05-25T02:31:10;101843.38;;;5.94;100.00
8160;BME280;27404;52.398;9.646;2023-05-25T02:33:35;101838.94;;;6.01;100.00
8160;BME280;27404;52.398;9.646;2023-05-25T02:36:00;101831.78;;;6.08;100.00
8160;BME280;27404;52.398;9.646;2023-05-25T02:38:26;101825.00;;;6.13;100.00
8160;BME280;27404;52.398;9.646;2023-05-25T02:40:51;101825.31;;;6.18;100.00
8160;BME280;27404;52.398;9.646;2023-05-25T02:43:17;101833.78;;;6.23;100.00
8160;BME280;27404;52.398;9.646;2023-05-25T02:45:42;101834.28;;;6.27;100.00
8160;BME280;27404;52.398;9.646;2023-05-25T02:48:08;101840.19;;;6.30;100.00
8160;BME280;27404;52.398;9.646;2023-05-25T02:50:34;101840.66;;;6.34;100.00
8160;BME280;27404;52.398;9.646;2023-05-25T02:52:59;101845.44;;;6.32;100.00
8160;BME280;27404;52.398;9.646;2023-05-25T02:55:25;101847.47;;;6.30;100.00
8160;BME280;27404;52.398;9.646;2023-05-25T02:57:51;101847.53;;;6.21;100.00
8160;BME280;27404;52.398;9.646;2023-05-25T03:00:17;101849.78;;;6.10;100.00
8160;BME280;27404;52.398;9.646;2023-05-25T03:02:43;101845.56;;;5.99;100.00
8160;BME280;27404;52.398;9.646;2023-05-25T03:05:10;101845.91;;;5.96;100.00
8160;BME280;27404;52.398;9.646;2023-05-25T03:07:36;101851.88;;;5.91;100.00
8160;BME280;27404;52.398;9.646;2023-05-25T03:10:02;101854.25;;;5.86;100.00
8160;BME280;27404;52.398;9.646;2023-05-25T03:12:27;101851.34;;;5.87;100.00
8160;BME280;27404;52.398;9.646;2023-05-25T03:14:53;101860.34;;;5.96;100.00
8160;BME280;27404;52.398;9.646;2023-05-25T03:17:18;101857.59;;;6.04;100.00
8160;BME280;27404;52.398;9.646;2023-05-25T03:19:43;101852.69;;;6.08;100.00
8160;BME280;27404;52.398;9.646;2023-05-25T03:22:09;101855.84;;;6.20;100.00
8160;BME280;27404;52.398;9.646;2023-05-25T03:24:35;101860.75;;;6.25;100.00
8160;BME280;27404;52.398;9.646;2023-05-25T03:27:00;101864.44;;;6.32;100.00
8160;BME280;27404;52.398;9.646;2023-05-25T03:29:26;101859.31;;;6.37;100.00
8160;BME280;27404;52.398;9.646;2023-05-25T03:31:51;101855.06;;;6.43;100.00
8160;BME280;27404;52.398;9.646;2023-05-25T03:34:17;101860.81;;;6.48;100.00
8160;BME280;27404;52.398;9.646;2023-05-25T03:36:42;101860.28;;;6.52;100.00
8160;BME280;27404;52.398;9.646;2023-05-25T03:39:10;101874.00;;;6.59;100.00
8160;BME280;27404;52.398;9.646;2023-05-25T03:41:36;101872.06;;;6.68;100.00
8160;BME280;27404;52.398;9.646;2023-05-25T03:44:01;101875.94;;;6.74;100.00
8160;BME280;27404;52.398;9.646;2023-05-25T03:46:27;101862.66;;;6.79;100.00
8160;BME280;27404;52.398;9.646;2023-05-25T03:48:52;101872.63;;;6.87;100.00
8160;BME280;27404;52.398;9.646;2023-05-25T03:51:18;101876.03;;;6.89;100.00
8160;BME280;27404;52.398;9.646;2023-05-25T03:53:43;101880.91;;;6.93;100.00
8160;BME280;27404;52.398;9.646;2023-05-25T03:56:08;101875.78;;;6.99;100.00
8160;BME280;27404;52.398;9.646;2023-05-25T03:58:34;101879.47;;;7.06;100.00
8160;BME280;27404;52.398;9.646;2023-05-25T04:00:59;101881.47;;;7.12;100.00
8160;BME280;27404;52.398;9.646;2023-05-25T04:03:25;101881.56;;;7.19;100.00
8160;BME280;27404;52.398;9.646;2023-05-25T04:05:51;101884.41;;;7.25;100.00
8160;BME280;27404;52.398;9.646;2023-05-25T04:08:17;101879.38;;;7.37;100.00
8160;BME280;27404;52.398;9.646;2023-05-25T04:10:46;101882.84;;;7.46;100.00
8160;BME280;27404;52.398;9.646;2023-05-25T04:13:12;101883.81;;;7.53;100.00
8160;BME280;27404;52.398;9.646;2023-05-25T04:15:38;101888.81;;;7.65;100.00
8160;BME280;27404;52.398;9.646;2023-05-25T04:18:03;101886.38;;;7.70;100.00
8160;BME280;27404;52.398;9.646;2023-05-25T04:20:29;101884.50;;;7.70;100.00
8160;BME280;27404;52.398;9.646;2023-05-25T04:22:55;101889.69;;;7.80;100.00
8160;BME280;27404;52.398;9.646;2023-05-25T04:25:21;101886.88;;;7.89;100.00
8160;BME280;27404;52.398;9.646;2023-05-25T04:27:47;101888.00;;;7.94;100.00
8160;BME280;27404;52.398;9.646;2023-05-25T04:30:14;101894.56;;;8.00;100.00
8160;BME280;27404;52.398;9.646;2023-05-25T04:32:40;101884.59;;;8.07;100.00
8160;BME280;27404;52.398;9.646;2023-05-25T04:35:05;101890.81;;;8.16;100.00
8160;BME280;27404;52.398;9.646;2023-05-25T04:37:31;101889.69;;;8.25;100.00
8160;BME280;27404;52.398;9.646;2023-05-25T04:39:58;101888.34;;;8.36;100.00
8160;BME280;27404;52.398;9.646;2023-05-25T04:42:23;101884.16;;;8.49;100.00
8160;BME280;27404;52.398;9.646;2023-05-25T04:44:50;101895.78;;;8.57;100.00
8160;BME280;27404;52.398;9.646;2023-05-25T04:47:17;101889.81;;;8.69;100.00
8160;BME280;27404;52.398;9.646;2023-05-25T04:49:43;101889.06;;;8.75;100.00
8160;BME280;27404;52.398;9.646;2023-05-25T04:52:09;101890.75;;;8.76;100.00
8160;BME280;27404;52.398;9.646;2023-05-25T04:54:34;101891.06;;;8.88;100.00
8160;BME280;27404;52.398;9.646;2023-05-25T04:57:01;101894.50;;;8.97;100.00
8160;BME280;27404;52.398;9.646;2023-05-25T04:59:27;101887.91;;;9.06;100.00
8160;BME280;27404;52.398;9.646;2023-05-25T05:01:52;101882.69;;;9.11;100.00
8160;BME280;27404;52.398;9.646;2023-05-25T05:04:18;101891.16;;;9.16;100.00
8160;BME280;27404;52.398;9.646;2023-05-25T05:06:43;101900.84;;;9.19;100.00
8160;BME280;27404;52.398;9.646;2023-05-25T05:09:09;101890.59;;;9.21;100.00
8160;BME280;27404;52.398;9.646;2023-05-25T05:11:34;101882.00;;;9.02;100.00
8160;BME280;27404;52.398;9.646;2023-05-25T05:14:00;101894.50;;;8.97;100.00
8160;BME280;27404;52.398;9.646;2023-05-25T05:16:25;101892.41;;;9.14;100.00
8160;BME280;27404;52.398;9.646;2023-05-25T05:18:51;101898.13;;;9.19;100.00
8160;BME280;27404;52.398;9.646;2023-05-25T05:21:16;101897.50;;;9.24;100.00
8160;BME280;27404;52.398;9.646;2023-05-25T05:23:42;101909.72;;;9.28;100.00
8160;BME280;27404;52.398;9.646;2023-05-25T05:26:08;101907.66;;;9.30;100.00
8160;BME280;27404;52.398;9.646;2023-05-25T05:28:36;101910.00;;;9.33;100.00
8160;BME280;27404;52.398;9.646;2023-05-25T05:31:01;101908.91;;;9.27;100.00
8160;BME280;27404;52.398;9.646;2023-05-25T05:33:27;101906.94;;;9.21;100.00
8160;BME280;27404;52.398;9.646;2023-05-25T05:35:52;101908.91;;;9.27;100.00
8160;BME280;27404;52.398;9.646;2023-05-25T05:38:18;101925.06;;;9.29;100.00
8160;BME280;27404;52.398;9.646;2023-05-25T05:40:44;101925.31;;;9.34;100.00
8160;BME280;27404;52.398;9.646;2023-05-25T05:43:11;101931.94;;;9.25;100.00
8160;BME280;27404;52.398;9.646;2023-05-25T05:45:37;101933.00;;;9.24;100.00
8160;BME280;27404;52.398;9.646;2023-05-25T05:48:02;101930.25;;;9.24;100.00
8160;BME280;27404;52.398;9.646;2023-05-25T05:50:34;101941.13;;;9.17;100.00
8160;BME280;27404;52.398;9.646;2023-05-25T05:53:00;101943.84;;;9.17;100.00
8160;BME280;27404;52.398;9.646;2023-05-25T05:55:25;101947.41;;;9.17;100.00
8160;BME280;27404;52.398;9.646;2023-05-25T05:57:50;101956.19;;;9.13;100.00
8160;BME280;27404;52.398;9.646;2023-05-25T06:00:16;101949.31;;;9.17;100.00
8160;BME280;27404;52.398;9.646;2023-05-25T06:02:42;101959.44;;;9.23;100.00
8160;BME280;27404;52.398;9.646;2023-05-25T06:05:07;101955.06;;;9.07;100.00
8160;BME280;27404;52.398;9.646;2023-05-25T06:07:33;101959.75;;;9.13;100.00
8160;BME280;27404;52.398;9.646;2023-05-25T06:10:00;101958.78;;;9.21;100.00
8160;BME280;27404;52.398;9.646;2023-05-25T06:12:25;101960.28;;;9.24;100.00
8160;BME280;27404;52.398;9.646;2023-05-25T06:14:51;101956.56;;;9.31;100.00
8160;BME280;27404;52.398;9.646;2023-05-25T06:17:17;101965.41;;;9.33;100.00
8160;BME280;27404;52.398;9.646;2023-05-25T06:19:43;101962.22;;;9.52;100.00
8160;BME280;27404;52.398;9.646;2023-05-25T06:22:08;101969.09;;;9.69;100.00
8160;BME280;27404;52.398;9.646;2023-05-25T06:24:34;101968.88;;;9.92;100.00
8160;BME280;27404;52.398;9.646;2023-05-25T06:26:59;101962.91;;;10.11;100.00
8160;BME280;27404;52.398;9.646;2023-05-25T06:29:27;101965.31;;;10.27;100.00
8160;BME280;27404;52.398;9.646;2023-05-25T06:31:52;101961.84;;;10.40;100.00
8160;BME280;27404;52.398;9.646;2023-05-25T06:34:18;101961.72;;;10.55;100.00
8160;BME280;27404;52.398;9.646;2023-05-25T06:36:43;101967.47;;;10.74;100.00
8160;BME280;27404;52.398;9.646;2023-05-25T06:39:09;101969.00;;;10.83;100.00
8160;BME280;27404;52.398;9.646;2023-05-25T06:41:36;101964.44;;;11.10;100.00
8160;BME280;27404;52.398;9.646;2023-05-25T06:44:02;101971.88;;;11.37;100.00
8160;BME280;27404;52.398;9.646;2023-05-25T06:46:28;101971.91;;;11.50;100.00
8160;BME280;27404;52.398;9.646;2023-05-25T06:48:53;101969.56;;;11.61;100.00
8160;BME280;27404;52.398;9.646;2023-05-25T06:51:19;101978.66;;;11.54;100.00
8160;BME280;27404;52.398;9.646;2023-05-25T06:53:45;101975.69;;;11.76;100.00
8160;BME280;27404;52.398;9.646;2023-05-25T06:56:10;101972.94;;;11.76;100.00
8160;BME280;27404;52.398;9.646;2023-05-25T06:58:36;101975.69;;;11.76;100.00
8160;BME280;27404;52.398;9.646;2023-05-25T07:01:01;101974.00;;;11.75;100.00
8160;BME280;27404;52.398;9.646;2023-05-25T07:03:27;101980.53;;;11.88;100.00
8160;BME280;27404;52.398;9.646;2023-05-25T07:05:52;101977.19;;;11.79;100.00
8160;BME280;27404;52.398;9.646;2023-05-25T07:08:18;101980.53;;;11.94;100.00
8160;BME280;27404;52.398;9.646;2023-05-25T07:10:43;101988.75;;;11.88;100.00
8160;BME280;27404;52.398;9.646;2023-05-25T07:13:09;101986.25;;;11.99;100.00
8160;BME280;27404;52.398;9.646;2023-05-25T07:15:35;101987.72;;;12.02;100.00
8160;BME280;27404;52.398;9.646;2023-05-25T07:18:00;101984.78;;;11.90;100.00
8160;BME280;27404;52.398;9.646;2023-05-25T07:20:26;101990.47;;;12.16;100.00
8160;BME280;27404;52.398;9.646;2023-05-25T07:22:51;101994.41;;;12.33;100.00
8160;BME280;27404;52.398;9.646;2023-05-25T07:25:17;101989.94;;;12.59;100.00
8160;BME280;27404;52.398;9.646;2023-05-25T07:27:47;101991.16;;;12.77;100.00
8160;BME280;27404;52.398;9.646;2023-05-25T07:30:13;101986.47;;;12.84;100.00
8160;BME280;27404;52.398;9.646;2023-05-25T07:32:38;101994.56;;;13.11;100.00
8160;BME280;27404;52.398;9.646;2023-05-25T07:35:05;101982.47;;;13.25;100.00
8160;BME280;27404;52.398;9.646;2023-05-25T07:37:30;101991.38;;;13.21;100.00
8160;BME280;27404;52.398;9.646;2023-05-25T07:39:56;101984.72;;;13.35;100.00
8160;BME280;27404;52.398;9.646;2023-05-25T07:42:21;101989.31;;;13.02;100.00
8160;BME280;27404;52.398;9.646;2023-05-25T07:44:47;101990.75;;;13.18;100.00
8160;BME280;27404;52.398;9.646;2023-05-25T07:47:13;101989.66;;;13.58;100.00
8160;BME280;27404;52.398;9.646;2023-05-25T07:49:38;101992.88;;;13.81;100.00
8160;BME280;27404;52.398;9.646;2023-05-25T07:52:04;101992.00;;;13.87;100.00
8160;BME280;27404;52.398;9.646;2023-05-25T07:54:31;101988.03;;;14.01;100.00
8160;BME280;27404;52.398;9.646;2023-05-25T07:56:56;101988.59;;;14.10;100.00
8160;BME280;27404;52.398;9.646;2023-05-25T07:59:21;101988.31;;;14.18;100.00
8160;BME280;27404;52.398;9.646;2023-05-25T08:01:47;101999.63;;;14.29;100.00
8160;BME280;27404;52.398;9.646;2023-05-25T08:04:12;101994.34;;;14.27;100.00
8160;BME280;27404;52.398;9.646;2023-05-25T08:06:38;101994.59;;;14.44;100.00
8160;BME280;27404;52.398;9.646;2023-05-25T08:09:04;101994.53;;;14.51;100.00
8160;BME280;27404;52.398;9.646;2023-05-25T08:11:30;101995.59;;;14.69;100.00
8160;BME280;27404;52.398;9.646;2023-05-25T08:13:56;101997.00;;;14.78;100.00
8160;BME280;27404;52.398;9.646;2023-05-25T08:16:21;102005.63;;;14.63;100.00
8160;BME280;27404;52.398;9.646;2023-05-25T08:18:47;101999.53;;;14.79;100.00
8160;BME280;27404;52.398;9.646;2023-05-25T08:21:13;102000.13;;;14.82;100.00
8160;BME280;27404;52.398;9.646;2023-05-25T08:23:39;102010.91;;;14.83;100.00
8160;BME280;27404;52.398;9.646;2023-05-25T08:26:10;102007.59;;;14.56;100.00
8160;BME280;27404;52.398;9.646;2023-05-25T08:28:36;102009.25;;;14.38;100.00
8160;BME280;27404;52.398;9.646;2023-05-25T08:31:02;102011.94;;;14.26;100.00
8160;BME280;27404;52.398;9.646;2023-05-25T08:33:28;102010.44;;;14.05;100.00
8160;BME280;27404;52.398;9.646;2023-05-25T08:35:54;102002.56;;;14.09;100.00
8160;BME280;27404;52.398;9.646;2023-05-25T08:38:19;102010.16;;;14.32;100.00
8160;BME280;27404;52.398;9.646;2023-05-25T08:41:04;102017.63;;;14.50;100.00
8160;BME280;27404;52.398;9.646;2023-05-25T08:43:31;102009.66;;;14.42;100.00
8160;BME280;27404;52.398;9.646;2023-05-25T08:46:02;102011.41;;;14.36;100.00
8160;BME280;27404;52.398;9.646;2023-05-25T08:48:29;102019.81;;;14.41;100.00
8160;BME280;27404;52.398;9.646;2023-05-25T08:51:00;102021.06;;;14.20;100.00
8160;BME280;27404;52.398;9.646;2023-05-25T08:53:27;102024.81;;;14.07;100.00
8160;BME280;27404;52.398;9.646;2023-05-25T08:55:54;102019.75;;;14.04;100.00
8160;BME280;27404;52.398;9.646;2023-05-25T08:58:28;102025.41;;;14.09;100.00
8160;BME280;27404;52.398;9.646;2023-05-25T09:00:57;102027.41;;;13.95;100.00
8160;BME280;27404;52.398;9.646;2023-05-25T09:03:25;102021.44;;;14.05;100.00
8160;BME280;27404;52.398;9.646;2023-05-25T09:05:53;102030.63;;;14.17;100.00
8160;BME280;27404;52.398;9.646;2023-05-25T09:08:21;102021.63;;;14.29;100.00
8160;BME280;27404;52.398;9.646;2023-05-25T09:10:47;102020.50;;;14.36;100.00
8160;BME280;27404;52.398;9.646;2023-05-25T09:13:13;102025.59;;;14.33;100.00
8160;BME280;27404;52.398;9.646;2023-05-25T09:15:38;102020.38;;;14.25;100.00
8160;BME280;27404;52.398;9.646;2023-05-25T09:18:04;102023.63;;;14.21;100.00
8160;BME280;27404;52.398;9.646;2023-05-25T09:20:29;102025.84;;;14.31;100.00
8160;BME280;27404;52.398;9.646;2023-05-25T09:22:58;102025.78;;;14.57;100.00
8160;BME280;27404;52.398;9.646;2023-05-25T09:25:28;102027.06;;;14.79;100.00
8160;BME280;27404;52.398;9.646;2023-05-25T09:27:55;102029.34;;;15.32;100.00
8160;BME280;27404;52.398;9.646;2023-05-25T09:30:23;102032.69;;;15.64;100.00
8160;BME280;27404;52.398;9.646;2023-05-25T09:32:49;102033.69;;;15.39;100.00
8160;BME280;27404;52.398;9.646;2023-05-25T09:35:15;102028.16;;;15.70;100.00
8160;BME280;27404;52.398;9.646;2023-05-25T09:37:42;102036.59;;;15.87;100.00
8160;BME280;27404;52.398;9.646;2023-05-25T09:40:08;102038.28;;;16.00;100.00
8160;BME280;27404;52.398;9.646;2023-05-25T09:42:37;102034.72;;;15.99;100.00
8160;BME280;27404;52.398;9.646;2023-05-25T09:45:04;102040.09;;;15.94;100.00
8160;BME280;27404;52.398;9.646;2023-05-25T09:47:30;102040.44;;;15.98;100.00
8160;BME280;27404;52.398;9.646;2023-05-25T09:49:56;102045.25;;;15.60;100.00
8160;BME280;27404;52.398;9.646;2023-05-25T09:52:23;102042.03;;;15.63;100.00
8160;BME280;27404;52.398;9.646;2023-05-25T09:54:49;102043.94;;;15.51;100.00
8160;BME280;27404;52.398;9.646;2023-05-25T09:57:16;102054.19;;;15.44;100.00
8160;BME280;27404;52.398;9.646;2023-05-25T09:59:42;102053.91;;;15.64;100.00
8160;BME280;27404;52.398;9.646;2023-05-25T10:02:09;102053.19;;;15.38;100.00
8160;BME280;27404;52.398;9.646;2023-05-25T10:04:35;102049.94;;;15.60;100.00
8160;BME280;27404;52.398;9.646;2023-05-25T10:07:02;102052.06;;;16.00;100.00
8160;BME280;27404;52.398;9.646;2023-05-25T10:09:28;102061.22;;;16.24;100.00
8160;BME280;27404;52.398;9.646;2023-05-25T10:11:56;102060.03;;;16.20;100.00
8160;BME280;27404;52.398;9.646;2023-05-25T10:14:27;102065.22;;;16.40;100.00
8160;BME280;27404;52.398;9.646;2023-05-25T10:16:54;102062.06;;;16.61;100.00
8160;BME280;27404;52.398;9.646;2023-05-25T10:21:57;102054.84;;;16.00;100.00
8160;BME280;27404;52.398;9.646;2023-05-25T10:24:33;102066.53;;;15.83;100.00
8160;BME280;27404;52.398;9.646;2023-05-25T10:27:01;102060.72;;;15.61;100.00
8160;BME280;27404;52.398;9.646;2023-05-25T10:29:28;102060.00;;;15.54;100.00
8160;BME280;27404;52.398;9.646;2023-05-25T10:31:57;102055.34;;;16.21;100.00
8160;BME280;27404;52.398;9.646;2023-05-25T10:34:23;102056.56;;;16.25;100.00
8160;BME280;27404;52.398;9.646;2023-05-25T10:36:50;102058.34;;;16.31;100.00
8160;BME280;27404;52.398;9.646;2023-05-25T10:39:16;102062.19;;;16.30;100.00
8160;BME280;27404;52.398;9.646;2023-05-25T10:41:45;102057.97;;;16.16;100.00
8160;BME280;27404;52.398;9.646;2023-05-25T10:44:11;102066.72;;;16.01;100.00
8160;BME280;27404;52.398;9.646;2023-05-25T10:46:37;102067.81;;;15.99;100.00
8160;BME280;27404;52.398;9.646;2023-05-25T10:49:03;102069.09;;;15.97;100.00
8160;BME280;27404;52.398;9.646;2023-05-25T10:51:38;102061.44;;;15.99;100.00
8160;BME280;27404;52.398;9.646;2023-05-25T10:54:04;102070.44;;;15.94;100.00
8160;BME280;27404;52.398;9.646;2023-05-25T10:56:30;102061.63;;;15.86;100.00
8160;BME280;27404;52.398;9.646;2023-05-25T10:58:55;102060.47;;;15.93;100.00
8160;BME280;27404;52.398;9.646;2023-05-25T11:01:22;102063.88;;;15.77;100.00
8160;BME280;27404;52.398;9.646;2023-05-25T11:03:54;102059.03;;;15.60;100.00
8160;BME280;27404;52.398;9.646;2023-05-25T11:09:04;102061.72;;;15.36;100.00
8160;BME280;27404;52.398;9.646;2023-05-25T11:14:27;102064.53;;;15.91;100.00
8160;BME280;27404;52.398;9.646;2023-05-25T11:17:12;102060.75;;;16.16;100.00
8160;BME280;27404;52.398;9.646;2023-05-25T11:22:20;102062.66;;;16.75;100.00
8160;BME280;27404;52.398;9.646;2023-05-25T11:24:50;102061.03;;;17.14;100.00
8160;BME280;27404;52.398;9.646;2023-05-25T11:27:40;102057.53;;;17.19;98.85
8160;BME280;27404;52.398;9.646;2023-05-25T11:30:10;102050.34;;;17.64;98.52
8160;BME280;27404;52.398;9.646;2023-05-25T11:32:36;102049.84;;;17.67;98.00
8160;BME280;27404;52.398;9.646;2023-05-25T11:35:05;102047.53;;;17.76;98.35
8160;BME280;27404;52.398;9.646;2023-05-25T11:37:33;102046.75;;;17.64;nan
8160;BME280;27404;52.398;9.646;2023-05-25T11:39:58;102044.72;;;17.59;91.83
8160;BME280;27404;52.398;9.646;2023-05-25T11:42:24;102044.28;;;17.96;91.65
8160;BME280;27404;52.398;9.646;2023-05-25T11:44:50;102039.91;;;18.52;88.62
8160;BME280;27404;52.398;9.646;2023-05-25T11:47:18;102039.00;;;18.90;84.98
8160;BME280;27404;52.398;9.646;2023-05-25T11:49:47;102038.75;;;18.92;82.56
8160;BME280;27404;52.398;9.646;2023-05-25T11:52:15;102033.31;;;18.18;83.89
8160;BME280;27404;52.398;9.646;2023-05-25T11:54:41;102030.75;;;17.66;90.10
8160;BME280;27404;52.398;9.646;2023-05-25T11:57:15;102035.44;;;17.65;91.29
8160;BME280;27404;52.398;9.646;2023-05-25T11:59:56;102044.59;;;17.37;91.83
8160;BME280;27404;52.398;9.646;2023-05-25T12:02:24;102045.47;;;17.25;92.68
8160;BME280;27404;52.398;9.646;2023-05-25T12:04:54;102034.59;;;17.19;94.72
8160;BME280;27404;52.398;9.646;2023-05-25T12:07:20;102032.66;;;17.19;97.03
8160;BME280;27404;52.398;9.646;2023-05-25T12:09:45;102024.06;;;17.32;92.45
8160;BME280;27404;52.398;9.646;2023-05-25T12:12:11;102028.59;;;17.39;88.94
8160;BME280;27404;52.398;9.646;2023-05-25T12:14:50;102025.56;;;17.69;89.99
8160;BME280;27404;52.398;9.646;2023-05-25T12:17:17;102024.63;;;17.64;89.61
8160;BME280;27404;52.398;9.646;2023-05-25T12:19:43;102018.81;;;17.48;88.02
8160;BME280;27404;52.398;9.646;2023-05-25T12:22:10;102007.63;;;17.89;87.79
8160;BME280;27404;52.398;9.646;2023-05-25T12:24:38;102018.66;;;18.18;85.15
8160;BME280;27404;52.398;9.646;2023-05-25T12:27:15;102017.94;;;18.89;84.56
8160;BME280;27404;52.398;9.646;2023-05-25T12:29:47;102012.72;;;18.93;79.53
8160;BME280;27404;52.398;9.646;2023-05-25T12:32:13;102007.03;;;19.27;77.68
8160;BME280;27404;52.398;9.646;2023-05-25T12:34:39;102002.63;;;19.04;77.26
8160;BME280;27404;52.398;9.646;2023-05-25T12:37:04;102005.16;;;19.05;77.16
8160;BME280;27404;52.398;9.646;2023-05-25T12:41:57;101987.53;;;18.50;78.78
8160;BME280;27404;52.398;9.646;2023-05-25T12:44:26;101991.19;;;18.56;78.34
8160;BME280;27404;52.398;9.646;2023-05-25T12:46:54;101984.31;;;18.36;79.42
8160;BME280;27404;52.398;9.646;2023-05-25T12:49:28;101988.09;;;18.52;76.94
8160;BME280;27404;52.398;9.646;2023-05-25T12:51:55;101987.97;;;18.02;76.03
8160;BME280;27404;52.398;9.646;2023-05-25T12:54:42;101988.88;;;18.08;77.49
8160;BME280;27404;52.398;9.646;2023-05-25T12:57:11;101988.19;;;18.57;76.04
8160;BME280;27404;52.398;9.646;2023-05-25T12:59:37;101987.88;;;18.98;74.64
8160;BME280;27404;52.398;9.646;2023-05-25T13:02:05;101992.09;;;19.06;75.12
8160;BME280;27404;52.398;9.646;2023-05-25T13:04:33;101984.66;;;19.06;74.72
8160;BME280;27404;52.398;9.646;2023-05-25T13:06:58;101989.28;;;19.01;75.47
8160;BME280;27404;52.398;9.646;2023-05-25T13:09:24;101984.19;;;19.15;74.04
8160;BME280;27404;52.398;9.646;2023-05-25T13:11:52;101990.31;;;19.17;72.59